Time;durP1;ratioP1;P1;durP2;ratioP2;P2;SDS_P1;SDS_P2;PMS_P1;PMS_P2;Temp;Humidity;BMP_temperature;BMP_pressure;BME280_temperature;BME280_humidity;BME280_pressure;Samples;Min_cycle;Max_cycle;Signal;HPM_P1;HPM_P2
2022/11/16 00:00:09;;;;;;;9.80;5.30;;;;;;;;;;5042752;28;20229;-32
2022/11/16 00:02:36;;;;;;;6.57;5.50;;;;;;;;;;5040709;28;20233;-32
2022/11/16 00:05:03;;;;;;;10.27;7.43;;;;;;;;;;5044563;28;20210;-32
2022/11/16 00:07:31;;;;;;;9.17;6.93;;;;;;;;;;5034225;28;20202;-34
2022/11/16 00:09:58;;;;;;;10.53;6.87;;;;;;;;;;5047872;28;20206;-30
2022/11/16 00:12:25;;;;;;;14.47;8.30;;;;;;;;;;5047538;28;20237;-32
2022/11/16 00:14:52;;;;;;;12.70;7.50;;;;;;;;;;5031001;28;20206;-33
2022/11/16 00:17:20;;;;;;;13.60;7.90;;;;;;;;;;5047955;28;20309;-31
2022/11/16 00:19:48;;;;;;;10.37;7.20;;;;;;;;;;5049488;28;20300;-37
2022/11/16 00:22:15;;;;;;;11.60;7.57;;;;;;;;;;5038260;28;20218;-30
2022/11/16 00:24:42;;;;;;;12.47;7.23;;;;;;;;;;5040832;28;20210;-31
2022/11/16 00:27:09;;;;;;;13.00;7.90;;;;;;;;;;5049301;28;20221;-30
2022/11/16 00:29:36;;;;;;;12.67;7.73;;;;;;;;;;5043042;28;20289;-34
2022/11/16 00:32:04;;;;;;;9.80;7.40;;;;;;;;;;5048701;28;20225;-32
2022/11/16 00:34:32;;;;;;;10.87;6.67;;;;;;;;;;5049416;28;20208;-34
2022/11/16 00:36:59;;;;;;;13.90;7.90;;;;;;;;;;5045284;28;20226;-33
2022/11/16 00:39:26;;;;;;;10.83;7.20;;;;;;;;;;5047509;28;20206;-31
2022/11/16 00:41:53;;;;;;;11.43;7.40;;;;;;;;;;5049443;28;20279;-34
2022/11/16 00:44:21;;;;;;;9.20;6.67;;;;;;;;;;5036705;28;20297;-34
2022/11/16 00:46:48;;;;;;;9.20;7.07;;;;;;;;;;5048774;28;20209;-33
2022/11/16 00:49:15;;;;;;;12.33;7.43;;;;;;;;;;5049201;28;20238;-32
2022/11/16 00:51:44;;;;;;;11.33;6.83;;;;;;;;;;5051166;28;20256;-33
2022/11/16 00:54:11;;;;;;;14.30;7.73;;;;;;;;;;5044605;28;20206;-32
2022/11/16 00:56:38;;;;;;;10.27;7.30;;;;;;;;;;5043944;28;20236;-32
2022/11/16 00:59:05;;;;;;;10.90;7.03;;;;;;;;;;5045753;28;20202;-32
2022/11/16 01:01:33;;;;;;;9.80;6.57;;;;;;;;;;5051823;28;20232;-32
2022/11/16 01:04:00;;;;;;;10.87;7.47;;;;;;;;;;5052738;28;20208;-33
2022/11/16 01:06:27;;;;;;;10.97;7.63;;;;;;;;;;5052098;28;20266;-32
2022/11/16 01:08:55;;;;;;;12.70;7.90;;;;;;;;;;5044336;28;20305;-31
2022/11/16 01:14:08;;;;;;;9.53;6.70;;;;;;;;;;5042874;28;20264;-31
2022/11/16 01:16:36;;;;;;;12.47;7.40;;;;;;;;;;5050494;28;20230;-32
2022/11/16 01:19:04;;;;;;;12.43;7.67;;;;;;;;;;5052126;28;20206;-32
2022/11/16 01:21:31;;;;;;;12.17;7.23;;;;;;;;;;5048606;28;20256;-32
2022/11/16 01:23:59;;;;;;;10.47;6.47;;;;;;;;;;5047200;28;20210;-32
2022/11/16 01:26:26;;;;;;;10.70;6.73;;;;;;;;;;5051738;28;20244;-31
2022/11/16 01:28:53;;;;;;;10.07;7.10;;;;;;;;;;5044225;28;20207;-32
2022/11/16 01:31:21;;;;;;;9.53;6.67;;;;;;;;;;5049229;28;20226;-33
2022/11/16 01:33:48;;;;;;;12.10;7.50;;;;;;;;;;5051972;28;20198;-30
2022/11/16 01:36:15;;;;;;;10.03;7.10;;;;;;;;;;5048485;28;20235;-30
2022/11/16 01:38:43;;;;;;;10.10;7.10;;;;;;;;;;5044661;28;20212;-33
2022/11/16 01:41:13;;;;;;;10.67;7.30;;;;;;;;;;5051385;28;20222;-31
2022/11/16 01:43:51;;;;;;;8.33;6.67;;;;;;;;;;5044237;28;20206;-33
2022/11/16 01:46:18;;;;;;;9.73;7.07;;;;;;;;;;5047554;28;20216;-31
2022/11/16 01:48:46;;;;;;;9.97;6.77;;;;;;;;;;5051497;28;20201;-33
2022/11/16 01:51:13;;;;;;;8.93;6.03;;;;;;;;;;5051716;28;20231;-32
2022/11/16 01:53:40;;;;;;;8.63;6.47;;;;;;;;;;5045723;28;20216;-30
2022/11/16 01:56:08;;;;;;;8.97;6.30;;;;;;;;;;5051181;28;20221;-30
2022/11/16 01:58:37;;;;;;;8.03;6.37;;;;;;;;;;5046334;28;20245;-30
2022/11/16 02:01:04;;;;;;;9.47;7.27;;;;;;;;;;5043310;28;20228;-33
2022/11/16 02:03:31;;;;;;;10.37;7.00;;;;;;;;;;5048050;28;20215;-32
2022/11/16 02:06:04;;;;;;;10.33;7.27;;;;;;;;;;5051327;28;20202;-32
2022/11/16 02:11:28;;;;;;;7.40;6.53;;;;;;;;;;5040790;28;20233;-31
2022/11/16 02:14:02;;;;;;;9.03;6.53;;;;;;;;;;5042877;28;20289;-33
2022/11/16 02:16:35;;;;;;;10.90;7.07;;;;;;;;;;5049365;28;20236;-31
2022/11/16 02:19:09;;;;;;;7.47;5.63;;;;;;;;;;5050871;28;20233;-33
2022/11/16 02:21:38;;;;;;;7.83;6.13;;;;;;;;;;5050934;28;20236;-34
2022/11/16 02:24:20;;;;;;;10.93;7.17;;;;;;;;;;5037882;28;20258;-35
2022/11/16 02:27:03;;;;;;;7.53;6.40;;;;;;;;;;5041710;28;20652;-34
2022/11/16 02:29:33;;;;;;;12.03;7.47;;;;;;;;;;5041481;28;20210;-33
2022/11/16 02:32:02;;;;;;;9.10;7.30;;;;;;;;;;5049930;28;20308;-31
2022/11/16 02:34:32;;;;;;;9.37;6.40;;;;;;;;;;5051086;28;20198;-33
2022/11/16 02:37:01;;;;;;;9.90;7.00;;;;;;;;;;5044803;28;20317;-32
2022/11/16 02:39:30;;;;;;;9.27;6.93;;;;;;;;;;5048461;28;20640;-32
2022/11/16 02:41:58;;;;;;;11.70;6.50;;;;;;;;;;5050406;28;20230;-32
2022/11/16 02:44:28;;;;;;;9.47;6.50;;;;;;;;;;5040416;28;20216;-29
2022/11/16 02:46:58;;;;;;;10.17;6.77;;;;;;;;;;5049068;28;20202;-33
2022/11/16 02:49:26;;;;;;;8.03;6.63;;;;;;;;;;5050574;28;20198;-34
2022/11/16 02:51:54;;;;;;;8.87;6.47;;;;;;;;;;5044885;28;20295;-30
2022/11/16 02:54:23;;;;;;;9.50;6.70;;;;;;;;;;5041324;28;20284;-32
2022/11/16 02:56:52;;;;;;;8.23;6.20;;;;;;;;;;5049775;28;20218;-33
2022/11/16 02:59:19;;;;;;;9.47;7.20;;;;;;;;;;5042768;28;20271;-32
2022/11/16 03:01:49;;;;;;;12.97;6.73;;;;;;;;;;5049045;28;20232;-29
2022/11/16 03:04:20;;;;;;;7.77;6.40;;;;;;;;;;5050788;28;20202;-34
2022/11/16 03:06:47;;;;;;;9.20;6.87;;;;;;;;;;5046427;28;20199;-34
2022/11/16 03:09:16;;;;;;;9.77;7.07;;;;;;;;;;5040619;28;20210;-33
2022/11/16 03:11:59;;;;;;;8.20;6.40;;;;;;;;;;5049846;28;20229;-29
2022/11/16 03:14:29;;;;;;;10.27;6.90;;;;;;;;;;5040241;28;20231;-33
2022/11/16 03:16:56;;;;;;;7.97;6.47;;;;;;;;;;5046183;28;20230;-31
2022/11/16 03:19:27;;;;;;;6.53;5.83;;;;;;;;;;5049621;28;20206;-30
2022/11/16 03:21:56;;;;;;;8.70;5.60;;;;;;;;;;5039520;28;20488;-32
2022/11/16 03:24:24;;;;;;;8.47;6.93;;;;;;;;;;5047225;28;20220;-32
2022/11/16 03:26:51;;;;;;;10.70;7.40;;;;;;;;;;5050025;28;20194;-30
2022/11/16 03:29:22;;;;;;;8.83;6.67;;;;;;;;;;5037151;28;20256;-33
2022/11/16 03:31:52;;;;;;;11.23;7.33;;;;;;;;;;5047774;28;20318;-31
2022/11/16 03:34:21;;;;;;;9.33;7.13;;;;;;;;;;5049683;28;20230;-32
2022/11/16 03:36:50;;;;;;;9.47;7.27;;;;;;;;;;5046492;28;20229;-33
2022/11/16 03:39:21;;;;;;;10.60;6.77;;;;;;;;;;5043721;28;20212;-32
2022/11/16 03:41:50;;;;;;;9.93;6.93;;;;;;;;;;5049836;28;20233;-35
2022/11/16 03:44:18;;;;;;;8.53;6.50;;;;;;;;;;5037502;28;20206;-29
2022/11/16 03:46:46;;;;;;;10.03;7.00;;;;;;;;;;5048045;28;20206;-31
2022/11/16 03:49:13;;;;;;;9.43;6.70;;;;;;;;;;5049317;28;20209;-32
2022/11/16 03:51:40;;;;;;;8.63;7.30;;;;;;;;;;5038490;28;20222;-31
2022/11/16 03:54:08;;;;;;;10.30;7.70;;;;;;;;;;5035213;28;20210;-32
2022/11/16 03:56:35;;;;;;;8.87;7.37;;;;;;;;;;5049305;28;20210;-34
2022/11/16 03:59:03;;;;;;;10.70;7.60;;;;;;;;;;5042339;28;20207;-32
2022/11/16 04:01:30;;;;;;;9.97;7.37;;;;;;;;;;5048666;28;20236;-32
2022/11/16 04:03:57;;;;;;;13.87;7.67;;;;;;;;;;5050995;28;20208;-32
2022/11/16 04:25:55;;;;;;;8.93;6.73;;;;;;;;;;5044641;28;20212;-30
2022/11/16 04:28:23;;;;;;;8.27;7.00;;;;;;;;;;5049929;28;20208;-32
2022/11/16 04:39:07;;;;;;;9.57;7.40;;;;;;;;;;5042308;28;20209;-33
2022/11/16 04:44:20;;;;;;;8.07;6.67;;;;;;;;;;5043374;28;20221;-30
2022/11/16 04:47:05;;;;;;;10.13;6.80;;;;;;;;;;5049751;28;20202;-33
2022/11/16 04:49:33;;;;;;;7.87;6.33;;;;;;;;;;5053295;28;20223;-33
2022/11/16 04:52:00;;;;;;;8.07;6.00;;;;;;;;;;5043739;28;20238;-31
2022/11/16 04:54:27;;;;;;;11.13;6.40;;;;;;;;;;5050655;28;20289;-33
2022/11/16 04:56:56;;;;;;;8.03;5.70;;;;;;;;;;5052855;28;20214;-32
2022/11/16 04:59:23;;;;;;;8.47;6.70;;;;;;;;;;5045683;28;20216;-31
2022/11/16 05:02:08;;;;;;;10.63;6.93;;;;;;;;;;5052258;28;20644;-31
2022/11/16 05:04:35;;;;;;;10.30;7.03;;;;;;;;;;5052510;28;20292;-33
2022/11/16 05:07:02;;;;;;;9.37;6.80;;;;;;;;;;5053018;28;20204;-33
2022/11/16 05:09:29;;;;;;;8.30;6.37;;;;;;;;;;5038358;28;20210;-34
2022/11/16 05:11:58;;;;;;;8.43;6.07;;;;;;;;;;5051065;28;20224;-34
2022/11/16 05:14:25;;;;;;;9.00;7.17;;;;;;;;;;5036128;28;20210;-30
2022/11/16 05:16:52;;;;;;;9.00;6.93;;;;;;;;;;5281447;23;20270;-33
2022/11/16 05:22:04;;;;;;;8.53;6.90;;;;;;;;;;5077567;28;20219;-32
2022/11/16 05:24:33;;;;;;;10.03;6.90;;;;;;;;;;5087904;28;20621;-32
2022/11/16 05:27:02;;;;;;;8.73;6.90;;;;;;;;;;5069911;28;20662;-34
2022/11/16 05:29:29;;;;;;;10.43;7.10;;;;;;;;;;5059761;28;20206;-33
2022/11/16 05:31:57;;;;;;;10.63;6.80;;;;;;;;;;5069831;28;20252;-33
2022/11/16 05:34:24;;;;;;;9.00;6.60;;;;;;;;;;5070038;28;20205;-34
2022/11/16 05:36:51;;;;;;;8.00;6.27;;;;;;;;;;5051291;28;20230;-33
2022/11/16 05:39:19;;;;;;;11.80;7.50;;;;;;;;;;5055520;28;20198;-32
2022/11/16 05:41:46;;;;;;;9.20;7.20;;;;;;;;;;5062544;28;20634;-34
2022/11/16 05:44:15;;;;;;;8.57;6.80;;;;;;;;;;5061073;28;20207;-32
2022/11/16 05:46:42;;;;;;;8.63;6.83;;;;;;;;;;5065537;28;20209;-33
2022/11/16 05:49:10;;;;;;;9.53;6.90;;;;;;;;;;5072181;28;20202;-33
2022/11/16 05:51:38;;;;;;;7.77;6.70;;;;;;;;;;5076634;28;20755;-33
2022/11/16 05:54:05;;;;;;;7.73;6.53;;;;;;;;;;5069625;28;20212;-35
2022/11/16 05:56:33;;;;;;;7.30;6.53;;;;;;;;;;5072652;28;20202;-33
2022/11/16 05:59:06;;;;;;;10.47;6.80;;;;;;;;;;5066691;28;20208;-33
2022/11/16 06:01:35;;;;;;;7.43;6.33;;;;;;;;;;5072664;28;20225;-33
2022/11/16 06:04:02;;;;;;;10.03;8.70;;;;;;;;;;5074168;28;20231;-31
2022/11/16 06:06:31;;;;;;;7.73;6.37;;;;;;;;;;5074077;28;20295;-36
2022/11/16 06:09:08;;;;;;;8.03;6.37;;;;;;;;;;5070104;28;20194;-34
2022/11/16 06:11:36;;;;;;;8.13;6.07;;;;;;;;;;5070666;28;20239;-36
2022/11/16 06:14:04;;;;;;;10.53;7.93;;;;;;;;;;5065847;28;20205;-35
2022/11/16 06:16:31;;;;;;;9.10;7.20;;;;;;;;;;5067037;28;20235;-32
2022/11/16 06:19:00;;;;;;;8.37;6.67;;;;;;;;;;5070027;28;20595;-34
2022/11/16 06:21:27;;;;;;;8.83;6.93;;;;;;;;;;5077590;28;20631;-34
2022/11/16 06:23:54;;;;;;;9.03;6.57;;;;;;;;;;5058906;28;20211;-34
2022/11/16 06:26:21;;;;;;;8.73;6.97;;;;;;;;;;5067649;28;20205;-34
2022/11/16 06:28:49;;;;;;;8.90;6.87;;;;;;;;;;5063983;28;20205;-32
2022/11/16 06:31:16;;;;;;;7.47;5.37;;;;;;;;;;5067041;28;20235;-34
2022/11/16 06:33:43;;;;;;;7.73;6.37;;;;;;;;;;5070620;28;20502;-35
2022/11/16 06:36:11;;;;;;;7.37;5.27;;;;;;;;;;5070803;28;20205;-35
2022/11/16 06:38:38;;;;;;;8.13;6.20;;;;;;;;;;5056753;28;20734;-34
2022/11/16 06:41:06;;;;;;;7.70;6.50;;;;;;;;;;5065221;28;20213;-36
2022/11/16 06:43:34;;;;;;;8.03;6.73;;;;;;;;;;5066481;28;20284;-32
2022/11/16 06:46:01;;;;;;;8.00;6.10;;;;;;;;;;5061697;28;20288;-32
2022/11/16 06:48:28;;;;;;;6.90;5.53;;;;;;;;;;5070072;28;20228;-33
2022/11/16 06:50:55;;;;;;;9.43;6.47;;;;;;;;;;5077353;28;20228;-33
2022/11/16 06:53:24;;;;;;;7.33;6.20;;;;;;;;;;5069255;28;20210;-34
2022/11/16 06:55:51;;;;;;;8.30;6.30;;;;;;;;;;5069978;28;20205;-35
2022/11/16 06:58:18;;;;;;;6.53;5.50;;;;;;;;;;5066628;28;20231;-34
2022/11/16 07:00:45;;;;;;;8.50;6.00;;;;;;;;;;5067668;28;20229;-34
2022/11/16 07:03:12;;;;;;;6.73;5.47;;;;;;;;;;5070438;28;20205;-34
2022/11/16 07:05:40;;;;;;;9.73;6.50;;;;;;;;;;5070619;28;20255;-35
2022/11/16 07:08:08;;;;;;;10.00;6.70;;;;;;;;;;5058165;28;20211;-34
2022/11/16 07:10:37;;;;;;;7.13;5.93;;;;;;;;;;5052912;28;20230;-32
2022/11/16 07:13:05;;;;;;;7.57;6.00;;;;;;;;;;5067490;28;20208;-37
2022/11/16 07:15:32;;;;;;;9.07;7.23;;;;;;;;;;5065197;28;20562;-32
2022/11/16 07:18:03;;;;;;;6.77;5.77;;;;;;;;;;5069956;28;20564;-37
2022/11/16 07:20:30;;;;;;;7.20;6.50;;;;;;;;;;5070474;28;20225;-34
2022/11/16 07:23:00;;;;;;;6.93;5.70;;;;;;;;;;5062655;28;20202;-35
2022/11/16 07:25:27;;;;;;;7.07;5.97;;;;;;;;;;5069404;28;20288;-33
2022/11/16 07:27:55;;;;;;;7.53;5.90;;;;;;;;;;5071066;28;20354;-34
2022/11/16 07:30:23;;;;;;;7.63;6.40;;;;;;;;;;5057087;28;20595;-36
2022/11/16 07:32:50;;;;;;;8.50;6.80;;;;;;;;;;5070473;28;20284;-34
2022/11/16 07:35:20;;;;;;;9.07;7.17;;;;;;;;;;5070914;28;20465;-33
2022/11/16 07:37:47;;;;;;;8.30;6.90;;;;;;;;;;5065557;28;20250;-33
2022/11/16 07:40:14;;;;;;;9.17;6.80;;;;;;;;;;5066693;28;20221;-33
2022/11/16 07:42:42;;;;;;;6.87;5.57;;;;;;;;;;5071707;28;20659;-32
2022/11/16 07:45:11;;;;;;;8.67;5.93;;;;;;;;;;5063029;28;20209;-33
2022/11/16 07:47:38;;;;;;;7.50;6.50;;;;;;;;;;5071339;28;20262;-32
2022/11/16 07:50:06;;;;;;;9.73;6.80;;;;;;;;;;5072004;28;20265;-33
2022/11/16 07:52:33;;;;;;;8.03;6.27;;;;;;;;;;5067459;28;20212;-32
2022/11/16 07:55:01;;;;;;;7.60;6.37;;;;;;;;;;5067841;28;20205;-32
2022/11/16 07:57:28;;;;;;;8.37;6.20;;;;;;;;;;5071756;28;20213;-33
2022/11/16 07:59:55;;;;;;;7.37;5.87;;;;;;;;;;5069264;28;20197;-31
2022/11/16 08:02:23;;;;;;;9.27;5.63;;;;;;;;;;5075197;28;20201;-31
2022/11/16 08:04:51;;;;;;;9.00;5.83;;;;;;;;;;5075076;28;20209;-33
2022/11/16 08:07:18;;;;;;;7.37;6.17;;;;;;;;;;5080787;28;20305;-32
2022/11/16 08:09:45;;;;;;;7.37;6.33;;;;;;;;;;5067548;28;20204;-33
2022/11/16 08:12:12;;;;;;;8.33;6.87;;;;;;;;;;5074721;28;20197;-31
2022/11/16 08:14:39;;;;;;;8.67;6.13;;;;;;;;;;5064360;28;20210;-35
2022/11/16 08:17:07;;;;;;;7.93;6.90;;;;;;;;;;5065040;28;20239;-33
2022/11/16 08:19:36;;;;;;;9.80;6.77;;;;;;;;;;5075463;28;20227;-35
2022/11/16 08:22:03;;;;;;;6.53;5.83;;;;;;;;;;5075884;28;20229;-31
2022/11/16 08:24:30;;;;;;;8.33;6.23;;;;;;;;;;5065519;28;20206;-33
2022/11/16 08:26:58;;;;;;;8.30;6.40;;;;;;;;;;5070248;28;20201;-32
2022/11/16 08:29:25;;;;;;;7.57;6.57;;;;;;;;;;5066817;28;20205;-35
2022/11/16 08:31:52;;;;;;;10.03;6.77;;;;;;;;;;5074266;28;20693;-33
2022/11/16 08:34:20;;;;;;;6.93;5.80;;;;;;;;;;5075447;28;20201;-32
2022/11/16 08:36:48;;;;;;;9.90;7.27;;;;;;;;;;5072917;28;20231;-33
2022/11/16 08:39:15;;;;;;;9.27;7.70;;;;;;;;;;5061922;28;20651;-34
2022/11/16 08:41:43;;;;;;;9.37;7.17;;;;;;;;;;5074313;28;20312;-33
2022/11/16 08:44:10;;;;;;;8.33;6.40;;;;;;;;;;5069916;28;20229;-33
2022/11/16 08:46:38;;;;;;;6.93;5.37;;;;;;;;;;5071290;28;20201;-35
2022/11/16 08:49:05;;;;;;;7.03;5.47;;;;;;;;;;5075000;28;20201;-33
2022/11/16 08:51:32;;;;;;;5.53;4.50;;;;;;;;;;5075094;28;20312;-33
2022/11/16 08:54:02;;;;;;;7.13;4.77;;;;;;;;;;5074210;28;20277;-33
2022/11/16 08:56:29;;;;;;;7.27;5.70;;;;;;;;;;5071589;28;20655;-33
2022/11/16 08:58:57;;;;;;;5.73;4.60;;;;;;;;;;5066268;28;20229;-35
2022/11/16 09:01:25;;;;;;;5.43;4.87;;;;;;;;;;5067180;28;20231;-33
2022/11/16 09:03:52;;;;;;;4.63;4.10;;;;;;;;;;5075312;28;20201;-34
2022/11/16 09:06:19;;;;;;;4.13;3.73;;;;;;;;;;5075208;28;20233;-32
2022/11/16 09:08:47;;;;;;;6.40;3.57;;;;;;;;;;5065134;28;20643;-33
2022/11/16 09:11:17;;;;;;;4.13;3.07;;;;;;;;;;5073356;28;20221;-32
2022/11/16 09:13:44;;;;;;;3.77;3.03;;;;;;;;;;5069428;28;20215;-34
2022/11/16 09:16:14;;;;;;;4.17;3.00;;;;;;;;;;5067215;28;20215;-33
2022/11/16 09:18:41;;;;;;;2.90;2.60;;;;;;;;;;5073555;28;20675;-33
2022/11/16 09:21:08;;;;;;;2.67;2.47;;;;;;;;;;5055177;28;20591;-34
2022/11/16 09:23:36;;;;;;;3.73;2.50;;;;;;;;;;5063954;28;20225;-33
2022/11/16 09:26:03;;;;;;;2.27;2.07;;;;;;;;;;5073969;28;20205;-32
2022/11/16 09:28:32;;;;;;;2.43;2.23;;;;;;;;;;5071603;28;20200;-34
2022/11/16 09:31:00;;;;;;;3.20;2.40;;;;;;;;;;5069107;28;20327;-34
2022/11/16 09:33:28;;;;;;;2.23;1.90;;;;;;;;;;5075090;28;20209;-32
2022/11/16 09:35:55;;;;;;;1.97;1.87;;;;;;;;;;5075097;28;20209;-35
2022/11/16 09:38:22;;;;;;;2.10;2.00;;;;;;;;;;5067112;28;20217;-33
2022/11/16 09:40:49;;;;;;;3.43;1.67;;;;;;;;;;5073891;28;20222;-32
2022/11/16 09:43:25;;;;;;;3.57;1.73;;;;;;;;;;5065295;28;20664;-33
2022/11/16 09:45:57;;;;;;;6.10;1.60;;;;;;;;;;5069899;28;20197;-33
2022/11/16 09:48:25;;;;;;;1.87;1.57;;;;;;;;;;5073619;28;20260;-31
2022/11/16 09:50:53;;;;;;;1.43;1.30;;;;;;;;;;5072875;28;20252;-34
2022/11/16 09:53:26;;;;;;;1.20;1.10;;;;;;;;;;5061135;28;20202;-35
2022/11/16 09:55:54;;;;;;;1.30;1.20;;;;;;;;;;5074102;28;20193;-33
2022/11/16 09:58:23;;;;;;;1.00;1.00;;;;;;;;;;5069915;28;20229;-35
2022/11/16 10:00:53;;;;;;;1.13;1.13;;;;;;;;;;5060639;28;20217;-31
2022/11/16 10:03:38;;;;;;;1.03;1.03;;;;;;;;;;5074108;28;20190;-31
2022/11/16 10:06:06;;;;;;;1.50;1.40;;;;;;;;;;5073995;28;20280;-34
2022/11/16 10:08:41;;;;;;;1.73;1.50;;;;;;;;;;5070461;28;20198;-34
2022/11/16 10:11:18;;;;;;;1.40;1.30;;;;;;;;;;5068429;28;20236;-33
2022/11/16 10:13:50;;;;;;;1.83;1.53;;;;;;;;;;5058289;28;20252;-34
2022/11/16 10:16:22;;;;;;;1.53;1.43;;;;;;;;;;5069596;28;20219;-33
2022/11/16 10:18:54;;;;;;;3.70;1.37;;;;;;;;;;5071249;28;20213;-34
2022/11/16 10:21:26;;;;;;;1.40;1.30;;;;;;;;;;5073802;28;20480;-35
2022/11/16 10:24:00;;;;;;;2.23;1.70;;;;;;;;;;5076950;28;20212;-33
2022/11/16 10:26:32;;;;;;;1.87;1.70;;;;;;;;;;5071408;28;20201;-32
2022/11/16 10:29:05;;;;;;;3.93;2.00;;;;;;;;;;5059788;28;20204;-33
2022/11/16 10:31:45;;;;;;;1.67;1.57;;;;;;;;;;5069780;28;20687;-34
2022/11/16 10:34:18;;;;;;;1.80;1.70;;;;;;;;;;5074406;28;20197;-36
2022/11/16 10:36:46;;;;;;;2.10;2.00;;;;;;;;;;5071103;28;20208;-33
2022/11/16 10:39:15;;;;;;;2.97;2.63;;;;;;;;;;5063019;28;20599;-33
2022/11/16 10:41:43;;;;;;;3.20;2.87;;;;;;;;;;5066791;28;20221;-33
2022/11/16 10:44:14;;;;;;;2.60;2.40;;;;;;;;;;5065067;28;20655;-35
2022/11/16 10:46:43;;;;;;;4.63;2.77;;;;;;;;;;5071637;28;20208;-33
2022/11/16 10:49:13;;;;;;;2.80;2.20;;;;;;;;;;5072558;28;20209;-33
2022/11/16 10:51:43;;;;;;;5.10;1.90;;;;;;;;;;5069893;28;20248;-35
2022/11/16 10:54:13;;;;;;;3.97;2.80;;;;;;;;;;5067448;28;20204;-35
2022/11/16 10:56:44;;;;;;;2.53;2.23;;;;;;;;;;5072381;28;20572;-34
2022/11/16 10:59:12;;;;;;;2.10;2.00;;;;;;;;;;5065274;28;20206;-34
2022/11/16 11:01:40;;;;;;;2.23;1.80;;;;;;;;;;5070475;28;20367;-33
2022/11/16 11:04:15;;;;;;;2.67;2.07;;;;;;;;;;5072810;28;20685;-33
2022/11/16 11:06:44;;;;;;;4.43;2.00;;;;;;;;;;5072929;28;20209;-33
2022/11/16 11:09:23;;;;;;;4.23;2.33;;;;;;;;;;5068337;28;20198;-33
2022/11/16 11:15:02;;;;;;;5.00;2.70;;;;;;;;;;5055888;28;20196;-34
2022/11/16 11:17:29;;;;;;;1.33;0.90;;;;;;;;;;5149953;22;20240;-32
2022/11/16 11:20:01;;;;;;;2.33;0.97;;;;;;;;;;5049611;28;20229;-30
2022/11/16 11:22:29;;;;;;;0.80;0.80;;;;;;;;;;5050216;28;20224;-32
2022/11/16 11:24:56;;;;;;;0.80;0.80;;;;;;;;;;5042828;28;20206;-29
2022/11/16 11:27:25;;;;;;;1.43;0.80;;;;;;;;;;5049314;28;20217;-31
2022/11/16 11:29:54;;;;;;;1.20;1.10;;;;;;;;;;5040587;28;20244;-33
2022/11/16 11:32:21;;;;;;;4.70;0.70;;;;;;;;;;5049369;28;20289;-31
2022/11/16 11:34:51;;;;;;;2.33;0.77;;;;;;;;;;5049471;28;20201;-34
2022/11/16 11:37:19;;;;;;;1.17;0.80;;;;;;;;;;5050210;28;20198;-34
2022/11/16 11:39:48;;;;;;;1.23;0.80;;;;;;;;;;5037232;28;20229;-35
2022/11/16 11:42:22;;;;;;;2.27;0.67;;;;;;;;;;5045432;28;20206;-36
2022/11/16 11:44:53;;;;;;;4.43;0.60;;;;;;;;;;5038276;28;20205;-34
2022/11/16 11:47:37;;;;;;;1.40;0.60;;;;;;;;;;5047815;28;20205;-34
2022/11/16 11:50:07;;;;;;;2.17;0.83;;;;;;;;;;5049938;28;20205;-32
2022/11/16 11:52:36;;;;;;;1.03;0.57;;;;;;;;;;5042437;28;20215;-33
2022/11/16 11:55:06;;;;;;;2.63;0.80;;;;;;;;;;5036924;28;20210;-34
2022/11/16 11:57:35;;;;;;;6.63;0.87;;;;;;;;;;5038098;28;20208;-34
2022/11/16 12:00:03;;;;;;;0.73;0.60;;;;;;;;;;5040697;28;20222;-32
2022/11/16 12:02:43;;;;;;;0.67;0.53;;;;;;;;;;5031895;28;20209;-34
2022/11/16 12:05:33;;;;;;;1.23;0.73;;;;;;;;;;5032259;28;20206;-30
2022/11/16 12:08:13;;;;;;;1.63;0.90;;;;;;;;;;5033397;28;20297;-34
2022/11/16 12:10:45;;;;;;;2.37;0.70;;;;;;;;;;5048098;28;20322;-34
2022/11/16 12:13:20;;;;;;;1.27;0.67;;;;;;;;;;5046554;28;20209;-34
2022/11/16 12:15:59;;;;;;;3.53;0.60;;;;;;;;;;5044143;28;20197;-33
2022/11/16 12:18:51;;;;;;;1.60;0.87;;;;;;;;;;5047251;28;20217;-35
2022/11/16 12:21:21;;;;;;;2.13;0.80;;;;;;;;;;5049719;28;20234;-31
2022/11/16 12:23:55;;;;;;;2.63;0.73;;;;;;;;;;5038993;28;20206;-31
2022/11/16 12:26:27;;;;;;;1.77;0.80;;;;;;;;;;5040034;28;20576;-32
2022/11/16 12:28:59;;;;;;;2.20;0.70;;;;;;;;;;5041650;28;20203;-35
2022/11/16 12:31:44;;;;;;;1.43;0.83;;;;;;;;;;5044516;28;20224;-33
2022/11/16 12:34:16;;;;;;;1.17;0.80;;;;;;;;;;5049499;28;20208;-33
2022/11/16 12:36:50;;;;;;;1.00;0.63;;;;;;;;;;5046675;28;20198;-34
2022/11/16 12:39:22;;;;;;;1.73;0.73;;;;;;;;;;5031741;28;20215;-36
2022/11/16 12:42:08;;;;;;;2.13;0.80;;;;;;;;;;5041130;28;20230;-30
2022/11/16 12:44:58;;;;;;;2.17;0.70;;;;;;;;;;5038429;28;20696;-29
2022/11/16 12:47:32;;;;;;;1.97;0.83;;;;;;;;;;5048722;28;20206;-34
2022/11/16 12:50:09;;;;;;;0.73;0.60;;;;;;;;;;5046418;28;20198;-35
2022/11/16 12:53:03;;;;;;;0.47;0.40;;;;;;;;;;5058273;28;20300;-34
2022/11/16 12:55:33;;;;;;;1.60;0.40;;;;;;;;;;5008592;28;20287;-33
2022/11/16 12:58:05;;;;;;;0.63;0.40;;;;;;;;;;5052755;28;20198;-34
2022/11/16 13:00:38;;;;;;;1.03;0.40;;;;;;;;;;5045362;28;20227;-36
2022/11/16 13:03:14;;;;;;;0.50;0.40;;;;;;;;;;5052487;28;20202;-32
2022/11/16 13:05:45;;;;;;;1.60;0.40;;;;;;;;;;5054703;28;20276;-34
2022/11/16 13:08:16;;;;;;;2.00;0.73;;;;;;;;;;5046076;28;20198;-29
2022/11/16 13:10:46;;;;;;;0.93;0.40;;;;;;;;;;5044661;28;20222;-28
2022/11/16 13:13:16;;;;;;;0.50;0.50;;;;;;;;;;5051758;28;20234;-32
2022/11/16 13:15:46;;;;;;;0.67;0.40;;;;;;;;;;5050267;28;20274;-33
2022/11/16 13:18:16;;;;;;;2.10;0.50;;;;;;;;;;5054066;28;20224;-29
2022/11/16 13:20:47;;;;;;;1.47;0.50;;;;;;;;;;5062597;28;20276;-35
2022/11/16 13:23:15;;;;;;;0.70;0.47;;;;;;;;;;5040849;28;20238;-32
2022/11/16 13:25:46;;;;;;;0.70;0.67;;;;;;;;;;5046367;28;20202;-34
2022/11/16 13:28:18;;;;;;;3.20;0.67;;;;;;;;;;5048774;28;20205;-33
2022/11/16 13:30:51;;;;;;;1.63;0.70;;;;;;;;;;5048346;28;20217;-30
2022/11/16 13:33:30;;;;;;;1.30;0.60;;;;;;;;;;5052058;28;20247;-33
2022/11/16 13:35:57;;;;;;;5.13;0.87;;;;;;;;;;5052048;28;20293;-29
2022/11/16 13:38:49;;;;;;;1.93;0.80;;;;;;;;;;5045452;28;20202;-34
2022/11/16 13:41:30;;;;;;;0.90;0.90;;;;;;;;;;5047640;28;20232;-35
2022/11/16 13:43:58;;;;;;;0.87;0.67;;;;;;;;;;5034004;28;20202;-33
2022/11/16 13:46:36;;;;;;;1.30;0.50;;;;;;;;;;5052576;28;20202;-30
2022/11/16 13:49:04;;;;;;;1.67;0.60;;;;;;;;;;5051586;28;20194;-36
2022/11/16 13:51:31;;;;;;;2.67;0.83;;;;;;;;;;5052245;28;20225;-33
2022/11/16 13:53:58;;;;;;;0.90;0.57;;;;;;;;;;5039546;28;20202;-35
2022/11/16 13:56:25;;;;;;;1.63;0.73;;;;;;;;;;5051188;28;20198;-34
2022/11/16 13:58:54;;;;;;;0.60;0.50;;;;;;;;;;5043563;28;20290;-36
2022/11/16 14:01:22;;;;;;;1.70;0.73;;;;;;;;;;5051395;28;20222;-37
2022/11/16 14:03:51;;;;;;;2.53;0.63;;;;;;;;;;5051882;28;20211;-37
2022/11/16 14:06:37;;;;;;;1.40;0.60;;;;;;;;;;5051717;28;20269;-29
2022/11/16 14:09:25;;;;;;;1.90;0.60;;;;;;;;;;5031473;28;20202;-32
2022/11/16 14:11:52;;;;;;;1.23;0.70;;;;;;;;;;5043500;28;20332;-33
2022/11/16 14:14:34;;;;;;;0.70;0.40;;;;;;;;;;5040576;28;20209;-34
2022/11/16 14:17:01;;;;;;;1.20;0.80;;;;;;;;;;5044575;28;20405;-33
2022/11/16 14:19:48;;;;;;;1.27;0.67;;;;;;;;;;5051067;28;20218;-35
2022/11/16 14:22:23;;;;;;;2.40;0.67;;;;;;;;;;5051504;28;20304;-34
2022/11/16 14:24:53;;;;;;;0.57;0.53;;;;;;;;;;5040490;28;20288;-35
2022/11/16 14:27:24;;;;;;;2.47;0.77;;;;;;;;;;5049479;28;20198;-34
2022/11/16 14:29:56;;;;;;;2.13;0.70;;;;;;;;;;5046685;28;20201;-30
2022/11/16 14:32:24;;;;;;;1.93;0.47;;;;;;;;;;5052634;28;20194;-30
2022/11/16 14:34:53;;;;;;;2.00;0.60;;;;;;;;;;5053265;28;20284;-29
2022/11/16 14:37:36;;;;;;;2.57;0.60;;;;;;;;;;5039948;28;20211;-34
2022/11/16 14:40:05;;;;;;;2.00;0.67;;;;;;;;;;5050107;28;20214;-31
2022/11/16 14:42:33;;;;;;;1.67;0.60;;;;;;;;;;5050480;28;20206;-34
2022/11/16 14:45:01;;;;;;;1.40;0.90;;;;;;;;;;5044357;28;20202;-36
2022/11/16 14:47:29;;;;;;;1.77;0.67;;;;;;;;;;5052342;28;20208;-36
2022/11/16 14:49:56;;;;;;;0.93;0.60;;;;;;;;;;5053951;28;20208;-33
2022/11/16 14:52:29;;;;;;;2.80;0.70;;;;;;;;;;5051322;28;20212;-33
2022/11/16 14:54:59;;;;;;;1.90;0.60;;;;;;;;;;5043139;28;20202;-36
2022/11/16 14:57:26;;;;;;;0.70;0.60;;;;;;;;;;5049755;28;20198;-31
2022/11/16 15:00:07;;;;;;;1.60;0.80;;;;;;;;;;5044956;28;20230;-31
2022/11/16 15:02:35;;;;;;;0.87;0.67;;;;;;;;;;5050094;28;20198;-33
2022/11/16 15:05:02;;;;;;;3.93;1.07;;;;;;;;;;5050523;28;20209;-35
2022/11/16 15:07:29;;;;;;;3.57;1.00;;;;;;;;;;5053454;28;20248;-31
2022/11/16 15:09:59;;;;;;;2.90;0.90;;;;;;;;;;5034705;28;20205;-33
2022/11/16 15:12:50;;;;;;;1.90;0.73;;;;;;;;;;5045666;28;20202;-34
2022/11/16 15:15:18;;;;;;;2.50;1.00;;;;;;;;;;5042428;28;20212;-35
2022/11/16 15:17:46;;;;;;;3.83;1.10;;;;;;;;;;5050267;28;20301;-35
2022/11/16 15:20:18;;;;;;;1.67;1.30;;;;;;;;;;5050755;28;20240;-31
2022/11/16 15:22:46;;;;;;;5.53;2.33;;;;;;;;;;5040645;28;20207;-32
2022/11/16 15:25:26;;;;;;;2.97;1.43;;;;;;;;;;5043069;28;20297;-33
2022/11/16 15:27:53;;;;;;;2.73;1.50;;;;;;;;;;5043783;28;20189;-33
2022/11/16 15:30:22;;;;;;;3.30;1.60;;;;;;;;;;5041000;28;20290;-34
2022/11/16 15:32:50;;;;;;;4.67;1.77;;;;;;;;;;5050279;28;20194;-34
2022/11/16 15:35:19;;;;;;;3.33;1.70;;;;;;;;;;5050372;28;20220;-35
2022/11/16 15:37:46;;;;;;;3.30;1.80;;;;;;;;;;5042090;28;20283;-35